Iris Victoria — V7TS8 — position and weather

sailwx.info

Track history (hours):
 
Tides and Currents Weather Stations Pressure Air Temp Water Temp Dewpoint Dewpoint Depression Visibility Wind Speed Wind Dir Waves Ship Positions

Iris Victoria

Last reported at 2014-Nov-18 12:33 UTC. Time now 2014-Nov-23 20:12 UTC.
Position N 01°11' E 103°37'.

Length 228 m; draft 11.4 m.

Type: Ship (hazmat cat C). MMSI: 538003876.

Date/timePositionNaut miles runAvg speedWind from/ knotsBaromVisibWave heightAir tempDewpointWater temp
2014-Nov-18 12:33N 01°11' E 103°37'10 9.9
2014-Nov-18 11:34N 01°10' E 103°47'  
2014-Nov-15 06:30N 01°12' E 103°48'0 0.0
2014-Nov-15 05:33N 01°12' E 103°48'  
2014-Nov-12 00:31N 01°13' E 103°52'3 1.3
2014-Nov-11 22:28N 01°15' E 103°54'0 0.1
2014-Nov-11 21:31N 01°15' E 103°54'0 0.1
2014-Nov-11 20:19N 01°15' E 103°54'0 0.0
2014-Nov-11 19:28N 01°15' E 103°54'0 0.1
2014-Nov-11 18:25N 01°15' E 103°54'0 0.0
2014-Nov-11 17:28N 01°15' E 103°54'0 0.1
2014-Nov-11 15:07N 01°15' E 103°54'0 0.0
2014-Nov-11 14:25N 01°15' E 103°54'0 0.1
2014-Nov-11 13:25N 01°15' E 103°54'0 0.0
2014-Nov-11 12:31N 01°15' E 103°54'0 0.0
2014-Nov-11 10:25N 01°15' E 103°54'0 0.1
2014-Nov-11 09:31N 01°15' E 103°54'0 0.0
2014-Nov-11 08:28N 01°15' E 103°54'0 0.0
2014-Nov-11 07:31N 01°15' E 103°54'0 0.1
2014-Nov-11 06:31N 01°15' E 103°54'0 0.2
2014-Nov-11 05:31N 01°15' E 103°54'0 0.0
2014-Nov-11 04:31N 01°15' E 103°54'0 0.0
2014-Nov-11 03:22N 01°15' E 103°54'0 0.0
2014-Nov-11 02:19N 01°15' E 103°54'0 0.0
2014-Nov-11 01:31N 01°15' E 103°54'0 0.0
2014-Nov-11 00:28N 01°15' E 103°54'0 0.0
2014-Nov-10 23:31N 01°15' E 103°54'0 0.0
2014-Nov-10 22:31N 01°15' E 103°54'0 0.0
2014-Nov-10 21:31N 01°15' E 103°54'0 0.1
2014-Nov-10 20:31N 01°15' E 103°54'0 0.0
2014-Nov-10 19:31N 01°15' E 103°54'0 0.1
2014-Nov-10 18:31N 01°15' E 103°54'0 0.0
2014-Nov-10 17:31N 01°15' E 103°54'0 0.0
2014-Nov-10 16:31N 01°15' E 103°54'0 0.1
2014-Nov-10 15:31N 01°15' E 103°54'0 0.1
2014-Nov-10 14:31N 01°15' E 103°54'0 0.1
2014-Nov-10 13:31N 01°15' E 103°54'0 0.0
2014-Nov-10 12:31N 01°15' E 103°54'0 0.0
2014-Nov-10 11:31N 01°15' E 103°54'0 0.1
2014-Nov-10 10:31N 01°15' E 103°54'0 0.1
2014-Nov-10 09:31N 01°15' E 103°54'1 1.0
2014-Nov-10 08:33N 01°14' E 103°55'7 7.4
2014-Nov-10 07:33N 01°16' E 104°02'  
Track history (hours):
 
Tides and Currents Weather Stations Pressure Air Temp Water Temp Dewpoint Dewpoint Depression Visibility Wind Speed Wind Dir Waves Ship Positions

Iris Victoria

Last reported at 2014-Nov-18 12:33 UTC. Time now 2014-Nov-23 20:12 UTC.
Position N 01°11' E 103°37'.

Length 228 m; draft 11.4 m.

Type: Ship (hazmat cat C). MMSI: 538003876.

Date/timePositionNaut miles runAvg speedWind from/ knotsBaromVisibWave heightAir tempDewpointWater temp
2014-Nov-18 12:33N 01°11' E 103°37'10 9.9
2014-Nov-18 11:34N 01°10' E 103°47'  
2014-Nov-15 06:30N 01°12' E 103°48'0 0.0
2014-Nov-15 05:33N 01°12' E 103°48'  
2014-Nov-12 00:31N 01°13' E 103°52'3 1.3
2014-Nov-11 22:28N 01°15' E 103°54'0 0.1
2014-Nov-11 21:31N 01°15' E 103°54'0 0.1
2014-Nov-11 20:19N 01°15' E 103°54'0 0.0
2014-Nov-11 19:28N 01°15' E 103°54'0 0.1
2014-Nov-11 18:25N 01°15' E 103°54'0 0.0
2014-Nov-11 17:28N 01°15' E 103°54'0 0.1
2014-Nov-11 15:07N 01°15' E 103°54'0 0.0
2014-Nov-11 14:25N 01°15' E 103°54'0 0.1
2014-Nov-11 13:25N 01°15' E 103°54'0 0.0
2014-Nov-11 12:31N 01°15' E 103°54'0 0.0
2014-Nov-11 10:25N 01°15' E 103°54'0 0.1
2014-Nov-11 09:31N 01°15' E 103°54'0 0.0
2014-Nov-11 08:28N 01°15' E 103°54'0 0.0
2014-Nov-11 07:31N 01°15' E 103°54'0 0.1
2014-Nov-11 06:31N 01°15' E 103°54'0 0.2
2014-Nov-11 05:31N 01°15' E 103°54'0 0.0
2014-Nov-11 04:31N 01°15' E 103°54'0 0.0
2014-Nov-11 03:22N 01°15' E 103°54'0 0.0
2014-Nov-11 02:19N 01°15' E 103°54'0 0.0
2014-Nov-11 01:31N 01°15' E 103°54'0 0.0
2014-Nov-11 00:28N 01°15' E 103°54'0 0.0
2014-Nov-10 23:31N 01°15' E 103°54'0 0.0
2014-Nov-10 22:31N 01°15' E 103°54'0 0.0
2014-Nov-10 21:31N 01°15' E 103°54'0 0.1
2014-Nov-10 20:31N 01°15' E 103°54'0 0.0
2014-Nov-10 19:31N 01°15' E 103°54'0 0.1
2014-Nov-10 18:31N 01°15' E 103°54'0 0.0
2014-Nov-10 17:31N 01°15' E 103°54'0 0.0
2014-Nov-10 16:31N 01°15' E 103°54'0 0.1
2014-Nov-10 15:31N 01°15' E 103°54'0 0.1
2014-Nov-10 14:31N 01°15' E 103°54'0 0.1
2014-Nov-10 13:31N 01°15' E 103°54'0 0.0
2014-Nov-10 12:31N 01°15' E 103°54'0 0.0
2014-Nov-10 11:31N 01°15' E 103°54'0 0.1
2014-Nov-10 10:31N 01°15' E 103°54'0 0.1
2014-Nov-10 09:31N 01°15' E 103°54'1 1.0
2014-Nov-10 08:33N 01°14' E 103°55'7 7.4
2014-Nov-10 07:33N 01°16' E 104°02'  

Dump ship's entire track history